KCWN

Cheyenne Mountain Airport

Cheyenne Mountain, Colorado, USA
METAR KCWN 190558Z AUTO 17006KT 10SM CLR M02/M06 A3008 RMK AO2 SLPNO T10171061 11010 21023 52015 $
Observed Flight Rules
Jan-19 @ 05:58 UTC (27 minutes ago) Visual Flight Rules
Wind Visibility Clouds
170° at 6 knots 10 miles
  • Clear skies
Temperatures Readings
Current -2°C / 28°F
Dewpoint -6°C / 21°F
Humidity 74%
Altimeter 30.08" Hg
Pressure 1018.62 hPa
Elevation 2040
METAR KCWN 190558Z AUTO 17006KT 10SM CLR M02/M06 A3008 RMK AO2 SLPNO T10171061 11010 21023 52015 $
Observed Flight Rules
Jan-19 @ 05:58 UTC
(27 minutes ago)
VFR
Wind Visibility
170° at 6 knots 10 miles
Clouds
  • Clear skies
Temperature Dewpoint
-2°C / 28°F -6°C / 21°F
Humidity Altimeter Pressure
74% 30.08" Hg 1018.62 hPa